Terminal Aerodrome Forecast
Issued by NWS

Home | Current Version | Previous Version | Graphics & Text | Print | Product List | Glossary On
Versions: 1 2 3 4 5 6 7 8 9 10 11 12 13 14 15 16 17 18 19 20 21 22 23 24 25
000
FTUS43 KBIS 282100 AAA
TAFDIK
TAF AMD
KDIK 282105Z 2821/2918 21020G27KT P6SM SCT140
     FM282300 28022G30KT P6SM VCTS SCT100CB
     FM290300 29031G42KT P6SM BKN040
     FM290700 31034G46KT P6SM BKN015
     FM291500 31018G26KT P6SM SCT015=

USA.gov is the U.S. government's official web portal to all federal, state and local government web resources and services.